sensor_id;sensor_type;location;lat;lon;timestamp;temperature;humidity
35593;DHT22;64447;52.140;5.602;2024-02-26T00:02:13;5.70;99.90
35593;DHT22;64447;52.140;5.602;2024-02-26T00:04:39;5.70;99.90
35593;DHT22;64447;52.140;5.602;2024-02-26T00:07:05;5.60;99.90
35593;DHT22;64447;52.140;5.602;2024-02-26T00:09:30;5.70;99.90
35593;DHT22;64447;52.140;5.602;2024-02-26T00:11:56;5.60;99.90
35593;DHT22;64447;52.140;5.602;2024-02-26T00:14:23;5.60;99.90
35593;DHT22;64447;52.140;5.602;2024-02-26T00:16:48;5.50;99.90
35593;DHT22;64447;52.140;5.602;2024-02-26T00:19:14;5.50;99.90
35593;DHT22;64447;52.140;5.602;2024-02-26T00:21:40;5.60;99.90
35593;DHT22;64447;52.140;5.602;2024-02-26T00:24:06;5.60;99.90
35593;DHT22;64447;52.140;5.602;2024-02-26T00:26:31;5.50;99.90
35593;DHT22;64447;52.140;5.602;2024-02-26T00:28:57;5.60;99.90
35593;DHT22;64447;52.140;5.602;2024-02-26T00:31:23;5.60;99.90
35593;DHT22;64447;52.140;5.602;2024-02-26T00:33:48;5.60;99.90
35593;DHT22;64447;52.140;5.602;2024-02-26T00:36:14;5.60;99.90
35593;DHT22;64447;52.140;5.602;2024-02-26T00:38:39;5.60;99.90
35593;DHT22;64447;52.140;5.602;2024-02-26T00:41:05;5.50;99.90
35593;DHT22;64447;52.140;5.602;2024-02-26T00:43:31;5.40;99.90
35593;DHT22;64447;52.140;5.602;2024-02-26T00:45:56;5.40;99.90
35593;DHT22;64447;52.140;5.602;2024-02-26T00:48:22;5.40;99.90
35593;DHT22;64447;52.140;5.602;2024-02-26T00:50:47;5.40;99.90
35593;DHT22;64447;52.140;5.602;2024-02-26T00:53:13;5.40;99.90
35593;DHT22;64447;52.140;5.602;2024-02-26T00:55:38;5.30;99.90
35593;DHT22;64447;52.140;5.602;2024-02-26T00:58:04;5.30;99.90
35593;DHT22;64447;52.140;5.602;2024-02-26T01:00:29;5.30;99.90
35593;DHT22;64447;52.140;5.602;2024-02-26T01:02:55;5.20;99.90
35593;DHT22;64447;52.140;5.602;2024-02-26T01:05:22;5.40;99.90
35593;DHT22;64447;52.140;5.602;2024-02-26T01:07:47;5.30;99.90
35593;DHT22;64447;52.140;5.602;2024-02-26T01:10:13;5.30;99.90
35593;DHT22;64447;52.140;5.602;2024-02-26T01:12:38;5.20;99.90
35593;DHT22;64447;52.140;5.602;2024-02-26T01:15:04;5.10;99.90
35593;DHT22;64447;52.140;5.602;2024-02-26T01:17:29;5.20;99.90
35593;DHT22;64447;52.140;5.602;2024-02-26T01:19:55;5.20;99.90
35593;DHT22;64447;52.140;5.602;2024-02-26T01:22:21;5.10;99.90
35593;DHT22;64447;52.140;5.602;2024-02-26T01:24:47;5.10;99.90
35593;DHT22;64447;52.140;5.602;2024-02-26T01:27:13;5.30;99.90
35593;DHT22;64447;52.140;5.602;2024-02-26T01:29:41;5.00;99.90
35593;DHT22;64447;52.140;5.602;2024-02-26T01:32:06;5.10;99.90
35593;DHT22;64447;52.140;5.602;2024-02-26T01:34:32;5.10;99.90
35593;DHT22;64447;52.140;5.602;2024-02-26T01:36:58;5.10;99.90
35593;DHT22;64447;52.140;5.602;2024-02-26T01:39:23;5.10;99.90
35593;DHT22;64447;52.140;5.602;2024-02-26T01:41:49;5.10;99.90
35593;DHT22;64447;52.140;5.602;2024-02-26T01:44:14;5.10;99.90
35593;DHT22;64447;52.140;5.602;2024-02-26T01:46:40;5.20;99.90
35593;DHT22;64447;52.140;5.602;2024-02-26T01:49:06;5.20;99.90
35593;DHT22;64447;52.140;5.602;2024-02-26T01:51:32;5.20;99.90
35593;DHT22;64447;52.140;5.602;2024-02-26T01:53:58;5.20;99.90
35593;DHT22;64447;52.140;5.602;2024-02-26T01:56:25;5.20;99.90
35593;DHT22;64447;52.140;5.602;2024-02-26T01:58:56;5.20;99.90
35593;DHT22;64447;52.140;5.602;2024-02-26T02:01:22;5.20;99.90
35593;DHT22;64447;52.140;5.602;2024-02-26T02:03:50;5.30;99.90
35593;DHT22;64447;52.140;5.602;2024-02-26T02:06:16;5.30;99.90
35593;DHT22;64447;52.140;5.602;2024-02-26T02:08:42;5.20;99.90
35593;DHT22;64447;52.140;5.602;2024-02-26T02:11:08;5.20;99.90
35593;DHT22;64447;52.140;5.602;2024-02-26T02:13:37;5.20;99.90
35593;DHT22;64447;52.140;5.602;2024-02-26T02:16:02;5.20;99.90
35593;DHT22;64447;52.140;5.602;2024-02-26T02:18:28;5.20;99.90
35593;DHT22;64447;52.140;5.602;2024-02-26T02:20:53;5.30;99.90
35593;DHT22;64447;52.140;5.602;2024-02-26T02:23:21;5.30;99.90
35593;DHT22;64447;52.140;5.602;2024-02-26T02:25:46;5.30;99.90
35593;DHT22;64447;52.140;5.602;2024-02-26T02:28:12;5.30;99.90
35593;DHT22;64447;52.140;5.602;2024-02-26T02:30:37;5.30;99.90
35593;DHT22;64447;52.140;5.602;2024-02-26T02:33:04;5.40;99.90
35593;DHT22;64447;52.140;5.602;2024-02-26T02:35:29;5.40;99.90
35593;DHT22;64447;52.140;5.602;2024-02-26T02:37:56;5.40;99.90
35593;DHT22;64447;52.140;5.602;2024-02-26T02:40:22;5.40;99.90
35593;DHT22;64447;52.140;5.602;2024-02-26T02:42:47;5.30;99.90
35593;DHT22;64447;52.140;5.602;2024-02-26T02:45:13;5.30;99.90
35593;DHT22;64447;52.140;5.602;2024-02-26T02:47:38;5.30;99.90
35593;DHT22;64447;52.140;5.602;2024-02-26T02:50:04;5.30;99.90
35593;DHT22;64447;52.140;5.602;2024-02-26T02:52:30;5.30;99.90
35593;DHT22;64447;52.140;5.602;2024-02-26T02:54:55;5.30;99.90
35593;DHT22;64447;52.140;5.602;2024-02-26T02:57:21;5.20;99.90
35593;DHT22;64447;52.140;5.602;2024-02-26T02:59:46;5.30;99.90
35593;DHT22;64447;52.140;5.602;2024-02-26T03:02:12;5.30;99.90
35593;DHT22;64447;52.140;5.602;2024-02-26T03:04:37;5.30;99.90
35593;DHT22;64447;52.140;5.602;2024-02-26T03:07:03;5.30;99.90
35593;DHT22;64447;52.140;5.602;2024-02-26T03:09:29;5.30;99.90
35593;DHT22;64447;52.140;5.602;2024-02-26T03:11:54;5.30;99.90
35593;DHT22;64447;52.140;5.602;2024-02-26T03:14:20;5.30;99.90
35593;DHT22;64447;52.140;5.602;2024-02-26T03:16:45;5.30;99.90
35593;DHT22;64447;52.140;5.602;2024-02-26T03:19:13;5.30;99.90
35593;DHT22;64447;52.140;5.602;2024-02-26T03:21:39;5.40;99.90
35593;DHT22;64447;52.140;5.602;2024-02-26T03:24:05;5.30;99.90
35593;DHT22;64447;52.140;5.602;2024-02-26T03:26:30;5.40;99.90
35593;DHT22;64447;52.140;5.602;2024-02-26T03:28:56;5.30;99.90
35593;DHT22;64447;52.140;5.602;2024-02-26T03:31:22;5.30;99.90
35593;DHT22;64447;52.140;5.602;2024-02-26T03:33:47;5.30;99.90
35593;DHT22;64447;52.140;5.602;2024-02-26T03:36:13;5.30;99.90
35593;DHT22;64447;52.140;5.602;2024-02-26T03:38:38;5.20;99.90
35593;DHT22;64447;52.140;5.602;2024-02-26T03:41:04;5.30;99.90
35593;DHT22;64447;52.140;5.602;2024-02-26T03:43:29;5.40;99.90
35593;DHT22;64447;52.140;5.602;2024-02-26T03:45:55;5.20;99.90
35593;DHT22;64447;52.140;5.602;2024-02-26T03:48:20;5.10;99.90
35593;DHT22;64447;52.140;5.602;2024-02-26T03:50:46;5.20;99.90
35593;DHT22;64447;52.140;5.602;2024-02-26T03:53:11;5.20;99.90
35593;DHT22;64447;52.140;5.602;2024-02-26T03:55:38;5.20;99.90
35593;DHT22;64447;52.140;5.602;2024-02-26T03:58:03;5.10;99.90
35593;DHT22;64447;52.140;5.602;2024-02-26T04:00:29;5.10;99.90
35593;DHT22;64447;52.140;5.602;2024-02-26T04:02:55;5.10;99.90
35593;DHT22;64447;52.140;5.602;2024-02-26T04:05:21;5.10;99.90
35593;DHT22;64447;52.140;5.602;2024-02-26T04:07:46;5.20;99.90
35593;DHT22;64447;52.140;5.602;2024-02-26T04:10:12;5.20;99.90
35593;DHT22;64447;52.140;5.602;2024-02-26T04:12:41;5.10;99.90
35593;DHT22;64447;52.140;5.602;2024-02-26T04:15:09;5.10;99.90
35593;DHT22;64447;52.140;5.602;2024-02-26T04:17:35;5.10;99.90
35593;DHT22;64447;52.140;5.602;2024-02-26T04:20:01;5.20;99.90
35593;DHT22;64447;52.140;5.602;2024-02-26T04:22:27;5.10;99.90
35593;DHT22;64447;52.140;5.602;2024-02-26T04:24:53;5.20;99.90
35593;DHT22;64447;52.140;5.602;2024-02-26T04:27:18;5.30;99.90
35593;DHT22;64447;52.140;5.602;2024-02-26T04:29:44;5.10;99.90
35593;DHT22;64447;52.140;5.602;2024-02-26T04:32:09;5.30;99.90
35593;DHT22;64447;52.140;5.602;2024-02-26T04:34:35;5.20;99.90
35593;DHT22;64447;52.140;5.602;2024-02-26T04:37:00;5.30;99.90
35593;DHT22;64447;52.140;5.602;2024-02-26T04:39:26;5.30;99.90
35593;DHT22;64447;52.140;5.602;2024-02-26T04:41:51;5.30;99.90
35593;DHT22;64447;52.140;5.602;2024-02-26T04:44:17;5.20;99.90
35593;DHT22;64447;52.140;5.602;2024-02-26T04:46:42;5.20;99.90
35593;DHT22;64447;52.140;5.602;2024-02-26T04:49:08;5.30;99.90
35593;DHT22;64447;52.140;5.602;2024-02-26T04:51:33;5.30;99.90
35593;DHT22;64447;52.140;5.602;2024-02-26T04:53:59;5.30;99.90
35593;DHT22;64447;52.140;5.602;2024-02-26T04:56:24;5.20;99.90
35593;DHT22;64447;52.140;5.602;2024-02-26T04:58:50;5.30;99.90
35593;DHT22;64447;52.140;5.602;2024-02-26T05:01:16;5.30;99.90
35593;DHT22;64447;52.140;5.602;2024-02-26T05:03:42;5.80;99.90
35593;DHT22;64447;52.140;5.602;2024-02-26T05:06:08;5.20;99.90
35593;DHT22;64447;52.140;5.602;2024-02-26T05:08:34;5.20;99.90
35593;DHT22;64447;52.140;5.602;2024-02-26T05:11:04;5.20;99.90
35593;DHT22;64447;52.140;5.602;2024-02-26T05:13:30;5.30;99.90
35593;DHT22;64447;52.140;5.602;2024-02-26T05:15:55;5.20;99.90
35593;DHT22;64447;52.140;5.602;2024-02-26T05:18:24;5.20;99.90
35593;DHT22;64447;52.140;5.602;2024-02-26T05:20:49;5.30;99.90
35593;DHT22;64447;52.140;5.602;2024-02-26T05:23:15;5.30;99.90
35593;DHT22;64447;52.140;5.602;2024-02-26T05:25:40;5.20;99.90
35593;DHT22;64447;52.140;5.602;2024-02-26T05:28:06;5.20;99.90
35593;DHT22;64447;52.140;5.602;2024-02-26T05:30:32;5.20;99.90
35593;DHT22;64447;52.140;5.602;2024-02-26T05:32:57;5.20;99.90
35593;DHT22;64447;52.140;5.602;2024-02-26T05:35:23;5.10;99.90
35593;DHT22;64447;52.140;5.602;2024-02-26T05:37:48;5.20;99.90
35593;DHT22;64447;52.140;5.602;2024-02-26T05:40:14;5.20;99.90
35593;DHT22;64447;52.140;5.602;2024-02-26T05:42:39;5.20;99.90
35593;DHT22;64447;52.140;5.602;2024-02-26T05:45:05;5.20;99.90
35593;DHT22;64447;52.140;5.602;2024-02-26T05:47:34;5.20;99.90
35593;DHT22;64447;52.140;5.602;2024-02-26T05:50:00;5.20;99.90
35593;DHT22;64447;52.140;5.602;2024-02-26T05:52:29;5.20;99.90
35593;DHT22;64447;52.140;5.602;2024-02-26T05:54:58;5.20;99.90
35593;DHT22;64447;52.140;5.602;2024-02-26T05:57:23;5.20;99.90
35593;DHT22;64447;52.140;5.602;2024-02-26T05:59:49;5.40;99.90
35593;DHT22;64447;52.140;5.602;2024-02-26T06:02:15;5.20;99.90
35593;DHT22;64447;52.140;5.602;2024-02-26T06:04:40;5.20;99.90
35593;DHT22;64447;52.140;5.602;2024-02-26T06:07:06;5.40;99.90
35593;DHT22;64447;52.140;5.602;2024-02-26T06:09:32;5.20;99.90
35593;DHT22;64447;52.140;5.602;2024-02-26T06:11:57;5.20;99.90
35593;DHT22;64447;52.140;5.602;2024-02-26T06:14:23;5.20;99.90
35593;DHT22;64447;52.140;5.602;2024-02-26T06:16:48;5.20;99.90
35593;DHT22;64447;52.140;5.602;2024-02-26T06:19:14;5.20;99.90
35593;DHT22;64447;52.140;5.602;2024-02-26T06:21:40;5.20;99.90
35593;DHT22;64447;52.140;5.602;2024-02-26T06:24:05;5.20;99.90
35593;DHT22;64447;52.140;5.602;2024-02-26T06:26:31;5.20;99.90
35593;DHT22;64447;52.140;5.602;2024-02-26T06:28:58;5.20;99.90
35593;DHT22;64447;52.140;5.602;2024-02-26T06:31:24;5.20;99.90
35593;DHT22;64447;52.140;5.602;2024-02-26T06:33:49;5.20;99.90
35593;DHT22;64447;52.140;5.602;2024-02-26T06:36:15;5.30;99.90
35593;DHT22;64447;52.140;5.602;2024-02-26T06:38:41;5.30;99.90
35593;DHT22;64447;52.140;5.602;2024-02-26T06:41:06;5.40;99.90
35593;DHT22;64447;52.140;5.602;2024-02-26T06:43:32;5.20;99.90
35593;DHT22;64447;52.140;5.602;2024-02-26T06:45:57;5.20;99.90
35593;DHT22;64447;52.140;5.602;2024-02-26T06:48:24;5.20;99.90
35593;DHT22;64447;52.140;5.602;2024-02-26T06:50:49;5.20;99.90
35593;DHT22;64447;52.140;5.602;2024-02-26T06:53:15;5.20;99.90
35593;DHT22;64447;52.140;5.602;2024-02-26T06:55:41;5.20;99.90
35593;DHT22;64447;52.140;5.602;2024-02-26T06:58:07;5.30;99.90
35593;DHT22;64447;52.140;5.602;2024-02-26T07:00:33;5.30;99.90
35593;DHT22;64447;52.140;5.602;2024-02-26T07:02:58;5.20;99.90
35593;DHT22;64447;52.140;5.602;2024-02-26T07:05:24;5.20;99.90
35593;DHT22;64447;52.140;5.602;2024-02-26T07:07:49;5.30;99.90
35593;DHT22;64447;52.140;5.602;2024-02-26T07:10:15;5.20;99.90
35593;DHT22;64447;52.140;5.602;2024-02-26T07:12:40;5.30;99.90
35593;DHT22;64447;52.140;5.602;2024-02-26T07:15:06;5.30;99.90
35593;DHT22;64447;52.140;5.602;2024-02-26T07:17:33;5.30;99.90
35593;DHT22;64447;52.140;5.602;2024-02-26T07:19:59;5.30;99.90
35593;DHT22;64447;52.140;5.602;2024-02-26T07:22:25;5.30;99.90
35593;DHT22;64447;52.140;5.602;2024-02-26T07:24:50;5.30;99.90
35593;DHT22;64447;52.140;5.602;2024-02-26T07:27:17;5.30;99.90
35593;DHT22;64447;52.140;5.602;2024-02-26T07:29:43;5.30;99.90
35593;DHT22;64447;52.140;5.602;2024-02-26T07:32:09;5.30;99.90
35593;DHT22;64447;52.140;5.602;2024-02-26T07:34:35;5.30;99.90
35593;DHT22;64447;52.140;5.602;2024-02-26T07:37:02;5.30;99.90
35593;DHT22;64447;52.140;5.602;2024-02-26T07:39:28;5.30;99.90
35593;DHT22;64447;52.140;5.602;2024-02-26T07:41:54;5.30;99.90
35593;DHT22;64447;52.140;5.602;2024-02-26T07:44:19;5.30;99.90
35593;DHT22;64447;52.140;5.602;2024-02-26T07:46:45;5.30;99.90
35593;DHT22;64447;52.140;5.602;2024-02-26T07:49:10;5.30;99.90
35593;DHT22;64447;52.140;5.602;2024-02-26T07:51:36;5.30;99.90
35593;DHT22;64447;52.140;5.602;2024-02-26T07:54:01;5.40;99.90
35593;DHT22;64447;52.140;5.602;2024-02-26T07:56:27;5.30;99.90
35593;DHT22;64447;52.140;5.602;2024-02-26T07:58:52;5.40;99.90
35593;DHT22;64447;52.140;5.602;2024-02-26T08:01:18;5.40;99.90
35593;DHT22;64447;52.140;5.602;2024-02-26T08:03:43;5.40;99.90
35593;DHT22;64447;52.140;5.602;2024-02-26T08:06:09;5.40;99.90
35593;DHT22;64447;52.140;5.602;2024-02-26T08:08:34;5.50;99.90
35593;DHT22;64447;52.140;5.602;2024-02-26T08:11:00;5.40;99.90
35593;DHT22;64447;52.140;5.602;2024-02-26T08:13:25;5.30;99.90
35593;DHT22;64447;52.140;5.602;2024-02-26T08:15:51;5.40;99.90
35593;DHT22;64447;52.140;5.602;2024-02-26T08:18:17;5.50;99.90
35593;DHT22;64447;52.140;5.602;2024-02-26T08:20:43;5.50;99.90
35593;DHT22;64447;52.140;5.602;2024-02-26T08:23:08;5.50;99.90
35593;DHT22;64447;52.140;5.602;2024-02-26T08:25:34;5.50;99.90
35593;DHT22;64447;52.140;5.602;2024-02-26T08:27:59;5.60;99.90
35593;DHT22;64447;52.140;5.602;2024-02-26T08:30:25;5.60;99.90
35593;DHT22;64447;52.140;5.602;2024-02-26T08:32:50;5.80;99.90
35593;DHT22;64447;52.140;5.602;2024-02-26T08:35:16;5.50;99.90
35593;DHT22;64447;52.140;5.602;2024-02-26T11:42:15;5.90;99.90
35593;DHT22;64447;52.140;5.602;2024-02-26T11:44:41;6.40;99.90
35593;DHT22;64447;52.140;5.602;2024-02-26T11:47:23;6.40;99.90
35593;DHT22;64447;52.140;5.602;2024-02-26T11:49:49;6.50;99.90
35593;DHT22;64447;52.140;5.602;2024-02-26T11:52:15;6.50;99.90
35593;DHT22;64447;52.140;5.602;2024-02-26T11:54:50;6.30;99.90
35593;DHT22;64447;52.140;5.602;2024-02-26T11:57:28;6.50;99.90
35593;DHT22;64447;52.140;5.602;2024-02-26T12:00:14;6.60;99.90
35593;DHT22;64447;52.140;5.602;2024-02-26T12:02:51;6.50;99.90
35593;DHT22;64447;52.140;5.602;2024-02-26T12:05:23;6.60;99.90
35593;DHT22;64447;52.140;5.602;2024-02-26T12:07:53;6.50;99.90
35593;DHT22;64447;52.140;5.602;2024-02-26T12:10:31;4.90;99.90
35593;DHT22;64447;52.140;5.602;2024-02-26T12:13:16;6.30;99.90
35593;DHT22;64447;52.140;5.602;2024-02-26T12:18:10;6.30;99.90
35593;DHT22;64447;52.140;5.602;2024-02-26T12:20:36;6.40;99.90
35593;DHT22;64447;52.140;5.602;2024-02-26T12:23:03;6.30;99.90
35593;DHT22;64447;52.140;5.602;2024-02-26T12:25:32;6.30;99.90
35593;DHT22;64447;52.140;5.602;2024-02-26T12:27:58;6.30;99.90
35593;DHT22;64447;52.140;5.602;2024-02-26T12:30:26;6.30;99.90
35593;DHT22;64447;52.140;5.602;2024-02-26T12:32:53;6.30;99.90
35593;DHT22;64447;52.140;5.602;2024-02-26T12:35:26;6.30;99.90
35593;DHT22;64447;52.140;5.602;2024-02-26T12:37:53;6.30;99.90
35593;DHT22;64447;52.140;5.602;2024-02-26T12:40:19;6.30;99.90
35593;DHT22;64447;52.140;5.602;2024-02-26T12:42:45;6.40;99.90
35593;DHT22;64447;52.140;5.602;2024-02-26T12:45:11;6.40;99.90
35593;DHT22;64447;52.140;5.602;2024-02-26T12:47:43;6.50;99.90
35593;DHT22;64447;52.140;5.602;2024-02-26T12:50:11;6.60;99.90
35593;DHT22;64447;52.140;5.602;2024-02-26T12:52:40;6.50;99.90
35593;DHT22;64447;52.140;5.602;2024-02-26T12:55:06;6.50;99.90
35593;DHT22;64447;52.140;5.602;2024-02-26T12:57:35;6.50;99.90
35593;DHT22;64447;52.140;5.602;2024-02-26T13:00:01;6.50;99.90
35593;DHT22;64447;52.140;5.602;2024-02-26T13:02:29;6.50;99.90
35593;DHT22;64447;52.140;5.602;2024-02-26T13:04:55;6.40;99.90
35593;DHT22;64447;52.140;5.602;2024-02-26T13:07:21;6.40;99.90
35593;DHT22;64447;52.140;5.602;2024-02-26T13:09:47;6.40;99.90
35593;DHT22;64447;52.140;5.602;2024-02-26T13:12:13;6.40;99.90
35593;DHT22;64447;52.140;5.602;2024-02-26T13:14:39;6.40;99.90
35593;DHT22;64447;52.140;5.602;2024-02-26T13:17:04;6.40;99.90
35593;DHT22;64447;52.140;5.602;2024-02-26T13:19:30;6.40;99.90
35593;DHT22;64447;52.140;5.602;2024-02-26T13:21:56;6.40;99.90
35593;DHT22;64447;52.140;5.602;2024-02-26T13:24:28;6.50;99.90
35593;DHT22;64447;52.140;5.602;2024-02-26T13:26:56;6.50;99.90
35593;DHT22;64447;52.140;5.602;2024-02-26T13:29:22;6.50;99.90
35593;DHT22;64447;52.140;5.602;2024-02-26T13:31:57;6.50;99.90
35593;DHT22;64447;52.140;5.602;2024-02-26T13:34:27;6.50;99.90
35593;DHT22;64447;52.140;5.602;2024-02-26T13:36:57;6.60;99.90
35593;DHT22;64447;52.140;5.602;2024-02-26T13:39:24;6.60;99.90
35593;DHT22;64447;52.140;5.602;2024-02-26T13:41:53;6.70;99.90
35593;DHT22;64447;52.140;5.602;2024-02-26T13:44:20;6.70;99.90
35593;DHT22;64447;52.140;5.602;2024-02-26T13:46:46;6.90;99.90
35593;DHT22;64447;52.140;5.602;2024-02-26T13:49:12;7.00;99.90
35593;DHT22;64447;52.140;5.602;2024-02-26T13:51:39;7.00;99.90
35593;DHT22;64447;52.140;5.602;2024-02-26T13:54:04;6.80;99.90
35593;DHT22;64447;52.140;5.602;2024-02-26T13:56:31;7.00;99.90
35593;DHT22;64447;52.140;5.602;2024-02-26T13:58:56;6.90;99.90
35593;DHT22;64447;52.140;5.602;2024-02-26T14:01:22;6.90;99.90
35593;DHT22;64447;52.140;5.602;2024-02-26T14:03:48;6.90;99.90
35593;DHT22;64447;52.140;5.602;2024-02-26T14:06:14;7.00;99.90
35593;DHT22;64447;52.140;5.602;2024-02-26T14:08:39;6.90;99.90
35593;DHT22;64447;52.140;5.602;2024-02-26T14:11:06;6.90;99.90
35593;DHT22;64447;52.140;5.602;2024-02-26T14:13:32;6.90;99.90
35593;DHT22;64447;52.140;5.602;2024-02-26T14:15:58;7.00;99.90
35593;DHT22;64447;52.140;5.602;2024-02-26T14:18:23;7.00;99.90
35593;DHT22;64447;52.140;5.602;2024-02-26T14:20:49;7.00;99.90
35593;DHT22;64447;52.140;5.602;2024-02-26T14:23:15;7.10;99.90
35593;DHT22;64447;52.140;5.602;2024-02-26T14:25:40;7.10;99.90
35593;DHT22;64447;52.140;5.602;2024-02-26T14:28:06;7.10;99.90
35593;DHT22;64447;52.140;5.602;2024-02-26T14:30:32;7.00;99.90
35593;DHT22;64447;52.140;5.602;2024-02-26T14:32:58;7.10;99.90
35593;DHT22;64447;52.140;5.602;2024-02-26T14:35:24;7.00;99.90
35593;DHT22;64447;52.140;5.602;2024-02-26T14:37:50;7.10;99.90
35593;DHT22;64447;52.140;5.602;2024-02-26T14:40:17;7.60;99.90
35593;DHT22;64447;52.140;5.602;2024-02-26T14:42:43;7.00;99.90
35593;DHT22;64447;52.140;5.602;2024-02-26T14:45:09;7.20;99.90
35593;DHT22;64447;52.140;5.602;2024-02-26T14:47:36;7.20;99.90
35593;DHT22;64447;52.140;5.602;2024-02-26T14:50:02;7.20;99.90
35593;DHT22;64447;52.140;5.602;2024-02-26T14:52:28;7.20;99.90
35593;DHT22;64447;52.140;5.602;2024-02-26T14:54:54;7.30;99.90
35593;DHT22;64447;52.140;5.602;2024-02-26T14:57:19;7.30;99.90
35593;DHT22;64447;52.140;5.602;2024-02-26T14:59:45;7.20;99.90
35593;DHT22;64447;52.140;5.602;2024-02-26T15:02:11;7.10;99.90
35593;DHT22;64447;52.140;5.602;2024-02-26T15:04:37;7.10;99.90
35593;DHT22;64447;52.140;5.602;2024-02-26T15:07:03;7.10;99.90
35593;DHT22;64447;52.140;5.602;2024-02-26T15:09:29;7.20;99.90
35593;DHT22;64447;52.140;5.602;2024-02-26T15:11:55;7.10;99.90
35593;DHT22;64447;52.140;5.602;2024-02-26T15:14:23;7.00;99.90
35593;DHT22;64447;52.140;5.602;2024-02-26T15:16:48;7.10;99.90
35593;DHT22;64447;52.140;5.602;2024-02-26T15:19:14;7.10;99.90
35593;DHT22;64447;52.140;5.602;2024-02-26T15:21:44;7.00;99.90
35593;DHT22;64447;52.140;5.602;2024-02-26T15:24:10;7.20;99.90
35593;DHT22;64447;52.140;5.602;2024-02-26T15:26:37;7.10;99.90
35593;DHT22;64447;52.140;5.602;2024-02-26T15:29:03;7.30;99.90
35593;DHT22;64447;52.140;5.602;2024-02-26T15:31:28;7.30;99.90
35593;DHT22;64447;52.140;5.602;2024-02-26T15:33:54;7.20;99.90
35593;DHT22;64447;52.140;5.602;2024-02-26T15:36:20;7.10;99.90
35593;DHT22;64447;52.140;5.602;2024-02-26T15:38:45;7.70;99.90
35593;DHT22;64447;52.140;5.602;2024-02-26T15:41:12;7.10;99.90
35593;DHT22;64447;52.140;5.602;2024-02-26T15:43:38;7.20;99.90
35593;DHT22;64447;52.140;5.602;2024-02-26T15:46:06;7.10;99.90
35593;DHT22;64447;52.140;5.602;2024-02-26T15:48:32;7.10;99.90
35593;DHT22;64447;52.140;5.602;2024-02-26T15:50:58;7.10;99.90
35593;DHT22;64447;52.140;5.602;2024-02-26T15:53:24;7.30;99.90
35593;DHT22;64447;52.140;5.602;2024-02-26T15:55:50;7.50;99.90
35593;DHT22;64447;52.140;5.602;2024-02-26T15:58:15;7.30;99.90
35593;DHT22;64447;52.140;5.602;2024-02-26T16:00:42;7.10;99.90
35593;DHT22;64447;52.140;5.602;2024-02-26T16:03:11;7.10;99.90
35593;DHT22;64447;52.140;5.602;2024-02-26T16:05:37;7.00;99.90
35593;DHT22;64447;52.140;5.602;2024-02-26T16:08:07;7.10;99.90
35593;DHT22;64447;52.140;5.602;2024-02-26T16:10:36;7.20;99.90
35593;DHT22;64447;52.140;5.602;2024-02-26T16:13:02;7.10;99.90
35593;DHT22;64447;52.140;5.602;2024-02-26T16:15:28;7.10;99.90
35593;DHT22;64447;52.140;5.602;2024-02-26T16:17:54;7.20;99.90
35593;DHT22;64447;52.140;5.602;2024-02-26T16:20:23;7.10;99.90
35593;DHT22;64447;52.140;5.602;2024-02-26T16:22:50;7.00;99.90
35593;DHT22;64447;52.140;5.602;2024-02-26T16:25:19;6.90;99.90
35593;DHT22;64447;52.140;5.602;2024-02-26T16:27:45;6.80;99.90
35593;DHT22;64447;52.140;5.602;2024-02-26T16:30:12;7.00;99.90
35593;DHT22;64447;52.140;5.602;2024-02-26T16:32:39;6.60;99.90
35593;DHT22;64447;52.140;5.602;2024-02-26T16:35:05;6.70;99.90
35593;DHT22;64447;52.140;5.602;2024-02-26T16:37:32;6.60;99.90
35593;DHT22;64447;52.140;5.602;2024-02-26T16:40:00;6.60;99.90
35593;DHT22;64447;52.140;5.602;2024-02-26T16:42:26;6.50;99.90
35593;DHT22;64447;52.140;5.602;2024-02-26T16:44:52;6.70;99.90
35593;DHT22;64447;52.140;5.602;2024-02-26T16:47:18;6.70;99.90
35593;DHT22;64447;52.140;5.602;2024-02-26T16:49:43;6.80;99.90
35593;DHT22;64447;52.140;5.602;2024-02-26T16:52:11;6.60;99.90
35593;DHT22;64447;52.140;5.602;2024-02-26T16:54:37;6.60;99.90
35593;DHT22;64447;52.140;5.602;2024-02-26T16:57:03;6.60;99.90
35593;DHT22;64447;52.140;5.602;2024-02-26T16:59:29;6.50;99.90
35593;DHT22;64447;52.140;5.602;2024-02-26T17:01:55;6.60;99.90
35593;DHT22;64447;52.140;5.602;2024-02-26T17:04:24;6.40;99.90
35593;DHT22;64447;52.140;5.602;2024-02-26T17:06:49;6.40;99.90
35593;DHT22;64447;52.140;5.602;2024-02-26T17:09:18;6.40;99.90
35593;DHT22;64447;52.140;5.602;2024-02-26T17:11:44;6.30;99.90
35593;DHT22;64447;52.140;5.602;2024-02-26T17:14:11;6.20;99.90
35593;DHT22;64447;52.140;5.602;2024-02-26T17:16:41;6.30;99.90
35593;DHT22;64447;52.140;5.602;2024-02-26T17:19:07;6.20;99.90
35593;DHT22;64447;52.140;5.602;2024-02-26T17:21:32;6.30;99.90
35593;DHT22;64447;52.140;5.602;2024-02-26T17:23:58;6.30;99.90
35593;DHT22;64447;52.140;5.602;2024-02-26T17:26:26;6.20;99.90
35593;DHT22;64447;52.140;5.602;2024-02-26T17:28:52;6.00;99.90
35593;DHT22;64447;52.140;5.602;2024-02-26T17:31:18;6.00;99.90
35593;DHT22;64447;52.140;5.602;2024-02-26T17:33:44;6.00;99.90
35593;DHT22;64447;52.140;5.602;2024-02-26T17:36:10;6.00;99.90
35593;DHT22;64447;52.140;5.602;2024-02-26T17:38:36;6.10;99.90
35593;DHT22;64447;52.140;5.602;2024-02-26T17:41:03;5.90;99.90
35593;DHT22;64447;52.140;5.602;2024-02-26T17:43:33;5.90;99.90
35593;DHT22;64447;52.140;5.602;2024-02-26T17:45:59;5.80;99.90
35593;DHT22;64447;52.140;5.602;2024-02-26T17:48:24;5.90;99.90
35593;DHT22;64447;52.140;5.602;2024-02-26T17:50:50;5.90;99.90
35593;DHT22;64447;52.140;5.602;2024-02-26T17:53:16;5.80;99.90
35593;DHT22;64447;52.140;5.602;2024-02-26T17:55:43;5.70;99.90
35593;DHT22;64447;52.140;5.602;2024-02-26T17:58:09;5.70;99.90
35593;DHT22;64447;52.140;5.602;2024-02-26T18:00:34;5.60;99.90
35593;DHT22;64447;52.140;5.602;2024-02-26T18:03:01;5.90;99.90
35593;DHT22;64447;52.140;5.602;2024-02-26T18:05:27;5.60;99.90
35593;DHT22;64447;52.140;5.602;2024-02-26T18:07:53;5.50;99.90
35593;DHT22;64447;52.140;5.602;2024-02-26T18:10:18;5.60;99.90
35593;DHT22;64447;52.140;5.602;2024-02-26T18:12:44;5.50;99.90
35593;DHT22;64447;52.140;5.602;2024-02-26T18:15:11;5.40;99.90
35593;DHT22;64447;52.140;5.602;2024-02-26T18:17:37;5.40;99.90
35593;DHT22;64447;52.140;5.602;2024-02-26T18:20:04;5.30;99.90
35593;DHT22;64447;52.140;5.602;2024-02-26T18:22:30;5.40;99.90
35593;DHT22;64447;52.140;5.602;2024-02-26T18:24:56;5.40;99.90
35593;DHT22;64447;52.140;5.602;2024-02-26T18:27:23;5.40;99.90
35593;DHT22;64447;52.140;5.602;2024-02-26T18:29:48;5.40;99.90
35593;DHT22;64447;52.140;5.602;2024-02-26T18:32:14;5.50;99.90
35593;DHT22;64447;52.140;5.602;2024-02-26T18:34:41;5.60;99.90
35593;DHT22;64447;52.140;5.602;2024-02-26T18:37:07;5.50;99.90
35593;DHT22;64447;52.140;5.602;2024-02-26T18:39:33;5.40;99.90
35593;DHT22;64447;52.140;5.602;2024-02-26T18:41:59;5.50;99.90
35593;DHT22;64447;52.140;5.602;2024-02-26T18:44:24;5.60;99.90
35593;DHT22;64447;52.140;5.602;2024-02-26T18:46:50;5.30;99.90